Time;durP1;ratioP1;P1;durP2;ratioP2;P2;SDS_P1;SDS_P2;PMS_P1;PMS_P2;Temp;Humidity;BMP_temperature;BMP_pressure;BME280_temperature;BME280_humidity;BME280_pressure;Samples;Min_cycle;Max_cycle;Signal;HPM_P1;HPM_P2
2022/10/19 00:02:07;;;;;;;5.90;2.35;;;11.50;99.90;;;;;;5105661;27;20038;-83
2022/10/19 00:04:33;;;;;;;7.57;2.03;;;11.50;99.90;;;;;;5122528;27;20039;-83
2022/10/19 00:06:58;;;;;;;4.68;1.75;;;11.40;99.90;;;;;;5104050;27;20139;-83
2022/10/19 00:09:24;;;;;;;4.68;1.92;;;11.40;99.90;;;;;;5118719;27;20114;-83
2022/10/19 00:11:50;;;;;;;7.85;2.08;;;11.30;99.90;;;;;;5116414;27;20046;-83
2022/10/19 00:14:20;;;;;;;5.72;1.75;;;11.30;99.90;;;;;;5132356;27;20039;-83
2022/10/19 00:16:48;;;;;;;5.97;1.95;;;11.30;99.90;;;;;;5136096;27;20125;-83
2022/10/19 00:19:17;;;;;;;7.85;2.10;;;11.20;99.90;;;;;;5133263;27;20050;-83
2022/10/19 00:21:43;;;;;;;5.40;1.60;;;11.10;99.90;;;;;;5135774;27;20559;-83
2022/10/19 00:24:09;;;;;;;6.03;1.80;;;11.10;99.90;;;;;;5157472;27;20084;-84
2022/10/19 00:26:35;;;;;;;6.22;2.00;;;11.00;99.90;;;;;;5123009;27;20425;-84
2022/10/19 00:29:00;;;;;;;6.35;1.85;;;11.00;99.90;;;;;;5135666;27;20035;-84
2022/10/19 00:31:27;;;;;;;6.53;1.85;;;10.90;99.90;;;;;;5119397;27;20395;-83
2022/10/19 00:33:54;;;;;;;5.40;1.90;;;10.90;99.90;;;;;;5108206;27;20386;-83
2022/10/19 00:36:33;;;;;;;5.68;1.63;;;10.80;99.90;;;;;;5118194;27;20039;-83
2022/10/19 00:39:00;;;;;;;6.07;1.65;;;10.70;99.90;;;;;;5139400;27;20038;-82
2022/10/19 00:41:29;;;;;;;3.95;1.67;;;10.60;99.90;;;;;;5157414;27;20146;-83
2022/10/19 00:43:59;;;;;;;7.10;2.00;;;10.60;99.90;;;;;;5156202;27;20038;-82
2022/10/19 00:46:27;;;;;;;6.43;1.90;;;10.70;99.90;;;;;;5151152;27;20035;-82
2022/10/19 00:48:58;;;;;;;8.15;1.77;;;10.60;99.90;;;;;;5148133;27;20212;-83
2022/10/19 00:51:27;;;;;;;8.43;1.70;;;10.50;99.90;;;;;;5149077;27;20098;-83
2022/10/19 00:53:54;;;;;;;5.90;1.55;;;10.80;99.90;;;;;;5161551;27;20050;-83
2022/10/19 00:56:19;;;;;;;7.85;1.67;;;10.50;99.90;;;;;;5138020;27;20033;-82
2022/10/19 00:58:45;;;;;;;4.45;1.92;;;10.40;99.90;;;;;;5121700;27;20126;-83
2022/10/19 01:01:16;;;;;;;4.25;1.80;;;10.40;99.90;;;;;;5136297;27;20034;-83
2022/10/19 01:03:42;;;;;;;5.70;1.48;;;10.40;99.90;;;;;;5152335;27;20049;-84
2022/10/19 01:06:10;;;;;;;5.40;1.85;;;10.30;99.90;;;;;;5103335;27;20051;-83
2022/10/19 01:08:35;;;;;;;5.35;1.65;;;10.30;99.90;;;;;;5134043;27;20046;-82
2022/10/19 01:11:56;;;;;;;3.78;1.60;;;10.30;99.90;;;;;;5120136;27;20031;-83
2022/10/19 01:14:40;;;;;;;7.22;1.80;;;10.20;99.90;;;;;;5092464;28;20038;-84
2022/10/19 01:17:39;;;;;;;7.53;1.77;;;10.20;99.90;;;;;;5133243;27;20392;-83
2022/10/19 01:20:23;;;;;;;7.38;2.03;;;10.10;99.90;;;;;;5137949;27;20095;-83
2022/10/19 01:23:20;;;;;;;4.45;1.80;;;10.10;99.90;;;;;;5150359;27;20026;-83
2022/10/19 01:26:06;;;;;;;6.75;1.90;;;10.00;99.90;;;;;;5134241;27;20501;-84
2022/10/19 01:28:56;;;;;;;5.95;2.10;;;10.00;99.90;;;;;;5134388;27;20066;-85
2022/10/19 01:31:53;;;;;;;11.95;2.00;;;10.00;99.90;;;;;;5130755;27;20045;-84
2022/10/19 01:34:27;;;;;;;9.98;1.80;;;10.00;99.90;;;;;;5133300;27;20046;-82
2022/10/19 01:36:59;;;;;;;6.63;2.08;;;10.00;99.90;;;;;;5131921;27;20031;-83
2022/10/19 01:39:45;;;;;;;5.35;1.92;;;10.00;99.90;;;;;;5131827;27;20035;-83
2022/10/19 01:42:45;;;;;;;5.53;1.90;;;10.10;99.90;;;;;;5132570;27;20479;-83
2022/10/19 01:45:16;;;;;;;4.85;1.90;;;10.00;99.90;;;;;;5134626;27;20087;-83
2022/10/19 01:47:54;;;;;;;6.82;2.10;;;10.00;99.90;;;;;;5154789;27;20585;-83
2022/10/19 01:50:43;;;;;;;6.78;1.75;;;10.00;99.90;;;;;;5154604;27;20072;-83
2022/10/19 01:53:11;;;;;;;6.63;2.03;;;10.00;99.90;;;;;;5145812;27;20127;-83
2022/10/19 01:55:41;;;;;;;3.63;1.90;;;10.00;99.90;;;;;;5137479;27;20060;-82
2022/10/19 01:58:11;;;;;;;6.30;2.72;;;10.00;99.90;;;;;;5137302;27;20049;-83
2022/10/19 02:00:40;;;;;;;8.13;1.80;;;10.00;99.90;;;;;;5136959;27;20407;-83
2022/10/19 02:03:07;;;;;;;8.73;2.05;;;10.00;99.90;;;;;;5155097;27;20039;-83
2022/10/19 02:05:34;;;;;;;5.13;2.05;;;10.00;99.90;;;;;;5153734;27;20398;-83
2022/10/19 02:08:06;;;;;;;4.35;1.95;;;10.00;99.90;;;;;;5133222;27;20045;-83
2022/10/19 02:10:36;;;;;;;10.38;2.50;;;10.00;99.90;;;;;;5126392;27;20046;-83
2022/10/19 02:13:05;;;;;;;8.75;2.03;;;10.00;99.90;;;;;;5137417;27;20113;-83
2022/10/19 02:15:35;;;;;;;4.80;2.33;;;10.00;99.90;;;;;;5132365;27;20129;-83
2022/10/19 02:18:02;;;;;;;7.32;2.00;;;10.00;99.90;;;;;;5134107;27;20031;-83
2022/10/19 02:20:28;;;;;;;9.43;2.60;;;9.90;99.90;;;;;;5097654;27;20073;-83
2022/10/19 02:22:54;;;;;;;8.45;2.58;;;10.00;99.90;;;;;;5129446;27;20083;-83
2022/10/19 02:25:20;;;;;;;7.03;2.13;;;10.30;99.90;;;;;;5128545;27;20091;-83
2022/10/19 02:27:46;;;;;;;8.65;2.72;;;10.00;99.90;;;;;;5099565;27;20444;-83
2022/10/19 02:30:16;;;;;;;8.40;2.40;;;10.00;99.90;;;;;;5115376;27;20026;-83
2022/10/19 02:32:43;;;;;;;10.50;2.58;;;9.90;99.90;;;;;;5146575;27;20467;-83
2022/10/19 02:35:10;;;;;;;8.70;2.17;;;10.00;99.90;;;;;;5118708;27;20037;-83
2022/10/19 02:37:36;;;;;;;9.52;2.30;;;10.00;99.90;;;;;;5128966;27;20114;-83
2022/10/19 02:40:03;;;;;;;6.10;2.25;;;9.90;99.90;;;;;;5116818;27;20498;-83
2022/10/19 02:42:36;;;;;;;5.40;2.42;;;10.00;99.90;;;;;;5136859;27;20030;-83
2022/10/19 02:45:10;;;;;;;7.85;2.40;;;10.00;99.90;;;;;;5140734;27;20030;-83
2022/10/19 02:47:43;;;;;;;9.57;2.67;;;10.00;99.90;;;;;;5138069;27;20160;-83
2022/10/19 02:50:10;;;;;;;7.10;3.17;;;10.00;99.90;;;;;;5133028;27;20053;-83
2022/10/19 02:52:37;;;;;;;6.30;2.25;;;10.00;99.90;;;;;;5122860;27;20114;-83
2022/10/19 02:55:04;;;;;;;8.65;2.67;;;10.00;99.90;;;;;;5123151;27;20039;-83
2022/10/19 02:57:31;;;;;;;10.55;2.40;;;10.00;99.90;;;;;;5147917;27;20099;-83
2022/10/19 02:59:57;;;;;;;6.30;2.35;;;9.90;99.90;;;;;;5104598;27;20091;-83
2022/10/19 03:02:23;;;;;;;8.23;2.67;;;9.90;99.90;;;;;;5156716;27;20031;-83
2022/10/19 03:04:49;;;;;;;11.35;2.60;;;10.50;99.90;;;;;;5121630;27;20035;-83
2022/10/19 03:07:17;;;;;;;8.52;2.85;;;9.90;99.90;;;;;;5122860;27;20065;-83
2022/10/19 03:09:43;;;;;;;5.30;2.03;;;9.90;99.90;;;;;;5136163;27;20074;-83
2022/10/19 03:12:10;;;;;;;9.43;2.63;;;9.90;99.90;;;;;;5121071;27;20031;-84
2022/10/19 03:14:36;;;;;;;9.55;2.20;;;9.90;99.90;;;;;;5122080;27;20035;-83
2022/10/19 03:17:02;;;;;;;4.82;2.78;;;9.90;99.90;;;;;;5137056;27;20037;-83
2022/10/19 03:19:27;;;;;;;6.28;2.47;;;9.90;99.90;;;;;;5140660;27;20042;-83
2022/10/19 03:21:53;;;;;;;5.85;2.00;;;9.80;99.90;;;;;;5114069;27;20366;-83
2022/10/19 03:24:19;;;;;;;7.50;2.75;;;10.30;99.90;;;;;;5122281;27;20125;-83
2022/10/19 03:26:44;;;;;;;4.68;2.28;;;9.80;99.90;;;;;;5130680;27;20042;-83
2022/10/19 03:29:10;;;;;;;11.65;2.33;;;9.80;99.90;;;;;;5135942;27;20035;-83
2022/10/19 03:31:36;;;;;;;6.97;2.40;;;9.80;99.90;;;;;;5117802;27;20113;-83
2022/10/19 03:34:02;;;;;;;6.03;2.30;;;9.80;99.90;;;;;;5122147;27;20159;-83
2022/10/19 03:36:36;;;;;;;5.80;2.85;;;9.80;99.90;;;;;;5153820;27;20422;-83
2022/10/19 03:39:10;;;;;;;8.63;2.45;;;9.80;99.90;;;;;;5156624;27;20050;-83
2022/10/19 03:41:36;;;;;;;4.22;2.33;;;9.80;99.90;;;;;;5133046;27;20054;-83
2022/10/19 03:44:03;;;;;;;10.60;2.38;;;9.90;99.90;;;;;;5132940;27;20038;-83
2022/10/19 03:46:29;;;;;;;6.13;2.65;;;9.80;99.90;;;;;;5123096;27;20066;-83
2022/10/19 03:48:55;;;;;;;8.75;2.38;;;9.90;99.90;;;;;;5117714;27;20038;-83
2022/10/19 03:51:26;;;;;;;6.95;2.35;;;9.90;99.90;;;;;;5133719;27;20551;-83
2022/10/19 03:54:03;;;;;;;5.85;2.50;;;9.90;99.90;;;;;;5139036;27;20092;-83
2022/10/19 03:56:30;;;;;;;7.70;2.17;;;9.90;99.90;;;;;;5135749;27;20042;-83
2022/10/19 03:58:57;;;;;;;7.88;2.70;;;9.90;99.90;;;;;;5139600;27;20045;-83
2022/10/19 04:01:26;;;;;;;8.45;2.78;;;9.90;99.90;;;;;;5116184;27;20039;-83
2022/10/19 04:03:57;;;;;;;6.15;2.15;;;9.90;99.90;;;;;;5154017;27;20043;-83
2022/10/19 04:06:26;;;;;;;5.13;2.10;;;9.90;99.90;;;;;;5153061;27;20055;-84
2022/10/19 04:08:52;;;;;;;11.60;2.70;;;10.30;99.90;;;;;;5129973;27;20044;-83
2022/10/19 04:11:20;;;;;;;6.75;2.00;;;9.90;99.90;;;;;;5136872;27;20086;-83
2022/10/19 04:13:51;;;;;;;4.03;2.10;;;9.90;99.90;;;;;;5151372;27;20043;-83
2022/10/19 04:16:17;;;;;;;6.78;2.30;;;9.90;99.90;;;;;;5130952;27;20038;-83
2022/10/19 04:18:43;;;;;;;9.15;2.58;;;9.90;99.90;;;;;;5131156;27;20094;-83
2022/10/19 04:21:21;;;;;;;6.68;2.60;;;9.90;99.90;;;;;;5136782;27;20125;-83
2022/10/19 04:23:48;;;;;;;6.45;2.40;;;9.90;99.90;;;;;;5128429;27;20047;-83
2022/10/19 04:26:14;;;;;;;8.27;2.53;;;9.80;99.90;;;;;;5139533;27;20046;-83
2022/10/19 04:28:39;;;;;;;8.18;2.97;;;9.90;99.90;;;;;;5120697;27;20039;-84
2022/10/19 04:31:06;;;;;;;7.03;2.33;;;9.90;99.90;;;;;;5119531;27;20118;-83
2022/10/19 04:33:32;;;;;;;6.75;2.45;;;10.00;99.90;;;;;;5138231;27;20171;-83
2022/10/19 04:35:59;;;;;;;7.95;2.55;;;9.80;99.90;;;;;;5131103;27;20039;-83
2022/10/19 04:38:25;;;;;;;9.52;2.63;;;9.80;99.90;;;;;;5134997;27;20119;-83
2022/10/19 04:40:51;;;;;;;4.93;2.35;;;9.70;99.90;;;;;;5139450;27;20039;-83
2022/10/19 04:43:17;;;;;;;7.07;2.30;;;9.70;99.90;;;;;;5116137;27;20034;-83
2022/10/19 04:45:43;;;;;;;7.75;2.25;;;9.70;99.90;;;;;;5118662;27;20079;-83
2022/10/19 04:48:08;;;;;;;7.57;2.45;;;9.70;99.90;;;;;;5130466;27;20122;-83
2022/10/19 04:50:34;;;;;;;5.57;2.25;;;9.70;99.90;;;;;;5104731;27;20035;-84
2022/10/19 04:53:00;;;;;;;11.35;2.70;;;9.70;99.90;;;;;;5131635;27;21357;-84
2022/10/19 04:55:25;;;;;;;4.80;1.85;;;9.70;99.90;;;;;;5133234;27;20117;-84
2022/10/19 04:57:51;;;;;;;6.50;2.10;;;9.60;99.90;;;;;;5117893;27;20035;-84
2022/10/19 05:00:17;;;;;;;6.20;2.28;;;9.60;99.90;;;;;;5119706;27;20034;-85
2022/10/19 05:02:46;;;;;;;6.32;2.70;;;9.60;99.90;;;;;;5119207;27;20038;-83
2022/10/19 05:05:13;;;;;;;5.90;2.30;;;9.70;99.90;;;;;;5155389;27;20034;-84
2022/10/19 05:07:39;;;;;;;6.50;1.98;;;9.70;99.90;;;;;;5125353;27;20128;-83
2022/10/19 05:10:06;;;;;;;6.55;2.30;;;9.60;99.90;;;;;;5118371;27;20041;-84
2022/10/19 05:12:34;;;;;;;6.80;2.00;;;9.60;99.90;;;;;;5128486;27;20046;-83
2022/10/19 05:15:00;;;;;;;5.35;1.70;;;9.60;99.90;;;;;;5130106;27;20050;-83
2022/10/19 05:17:29;;;;;;;6.25;2.20;;;9.70;99.90;;;;;;5110684;27;20471;-83
2022/10/19 05:19:56;;;;;;;4.60;1.80;;;10.40;99.90;;;;;;5119458;27;20402;-84
2022/10/19 05:22:23;;;;;;;6.78;2.00;;;9.60;99.90;;;;;;5119585;27;20043;-83
2022/10/19 05:24:48;;;;;;;7.90;2.00;;;9.60;99.90;;;;;;5125350;27;20030;-84
2022/10/19 05:27:14;;;;;;;6.20;2.08;;;9.60;99.90;;;;;;5107986;27;20068;-83
2022/10/19 05:29:40;;;;;;;7.22;1.77;;;10.50;99.90;;;;;;5120735;27;20058;-84
2022/10/19 05:32:05;;;;;;;10.50;2.05;;;9.70;99.90;;;;;;5113692;27;20468;-83
2022/10/19 05:34:31;;;;;;;6.78;1.67;;;10.10;99.90;;;;;;5134577;27;20090;-84
2022/10/19 05:36:57;;;;;;;5.95;1.90;;;9.70;99.90;;;;;;5148888;27;20053;-84
2022/10/19 05:39:23;;;;;;;3.88;1.60;;;9.70;99.90;;;;;;5159536;27;20487;-84
2022/10/19 05:41:49;;;;;;;9.07;2.22;;;9.70;99.90;;;;;;5153303;27;20398;-85
2022/10/19 05:44:17;;;;;;;8.57;1.80;;;9.70;99.90;;;;;;5117537;27;20039;-85
2022/10/19 05:46:43;;;;;;;4.05;1.50;;;9.70;99.90;;;;;;5149744;27;20039;-85
2022/10/19 05:49:11;;;;;;;5.53;1.70;;;9.70;99.90;;;;;;5117261;27;20034;-84
2022/10/19 05:51:37;;;;;;;7.70;1.98;;;9.70;99.90;;;;;;5154012;27;20091;-83
2022/10/19 05:54:02;;;;;;;6.22;1.80;;;9.70;99.90;;;;;;5136557;27;20038;-84
2022/10/19 05:56:29;;;;;;;3.83;1.70;;;9.70;99.90;;;;;;5119523;27;20309;-84
2022/10/19 05:58:58;;;;;;;8.80;1.95;;;9.70;99.90;;;;;;5118573;27;20122;-85
2022/10/19 06:01:24;;;;;;;7.63;2.05;;;9.70;99.90;;;;;;5115193;27;20435;-83
2022/10/19 06:03:52;;;;;;;7.93;2.20;;;9.70;99.90;;;;;;5131796;27;20426;-84
2022/10/19 06:06:18;;;;;;;6.47;2.22;;;9.60;99.90;;;;;;5131068;27;20050;-84
2022/10/19 06:08:44;;;;;;;11.65;2.45;;;9.70;99.90;;;;;;5136219;27;20457;-83
2022/10/19 06:11:13;;;;;;;7.55;2.10;;;9.70;99.90;;;;;;5153914;27;20118;-84
2022/10/19 06:13:39;;;;;;;9.73;2.00;;;10.10;99.90;;;;;;5135061;27;20030;-84
2022/10/19 06:16:07;;;;;;;8.68;2.05;;;9.70;99.90;;;;;;5145174;27;20031;-84
2022/10/19 06:18:33;;;;;;;5.80;1.92;;;9.70;99.90;;;;;;5136483;27;20050;-84
2022/10/19 06:21:04;;;;;;;11.55;2.17;;;9.80;99.90;;;;;;5117639;27;20402;-85
2022/10/19 06:23:31;;;;;;;4.38;1.58;;;9.70;99.90;;;;;;5132066;27;20370;-84
2022/10/19 06:25:57;;;;;;;8.13;2.08;;;9.70;99.90;;;;;;5134736;27;20086;-83
2022/10/19 06:28:22;;;;;;;6.38;2.08;;;9.80;99.90;;;;;;5116065;27;20122;-83
2022/10/19 06:30:48;;;;;;;10.70;2.22;;;9.80;99.90;;;;;;5134488;27;20035;-84
2022/10/19 06:33:14;;;;;;;6.57;2.30;;;9.80;99.90;;;;;;5100015;27;20042;-84
2022/10/19 06:35:41;;;;;;;7.78;2.60;;;9.80;99.90;;;;;;5133952;27;20387;-84
2022/10/19 06:38:08;;;;;;;6.63;2.30;;;9.80;99.90;;;;;;5120565;27;20504;-84
2022/10/19 06:40:34;;;;;;;9.82;2.40;;;9.90;99.90;;;;;;5119560;27;20050;-84
2022/10/19 06:43:00;;;;;;;5.95;1.92;;;9.80;99.90;;;;;;5132821;28;20383;-84
2022/10/19 06:45:26;;;;;;;9.55;2.22;;;9.90;99.90;;;;;;5130335;27;20030;-85
2022/10/19 06:47:52;;;;;;;12.07;2.20;;;9.90;99.90;;;;;;5115417;28;20078;-85
2022/10/19 06:50:19;;;;;;;5.63;1.90;;;10.00;99.90;;;;;;5145869;27;20062;-85
2022/10/19 06:52:45;;;;;;;8.40;1.90;;;10.00;99.90;;;;;;5153472;27;20074;-84
2022/10/19 06:55:11;;;;;;;8.75;2.28;;;10.00;99.90;;;;;;5136170;27;20490;-84
2022/10/19 06:57:36;;;;;;;12.13;1.90;;;10.00;99.90;;;;;;5136028;27;20091;-84
2022/10/19 07:00:04;;;;;;;9.80;2.13;;;10.00;99.90;;;;;;5136104;27;20042;-85
2022/10/19 07:02:29;;;;;;;7.15;1.90;;;10.10;99.90;;;;;;5115756;27;20041;-84
2022/10/19 07:04:55;;;;;;;9.95;2.42;;;10.10;99.90;;;;;;5119816;27;20121;-84
2022/10/19 07:07:21;;;;;;;7.60;1.90;;;10.10;99.90;;;;;;5118932;27;20046;-85
2022/10/19 07:09:47;;;;;;;9.57;2.38;;;10.10;99.90;;;;;;5136614;27;20039;-84
2022/10/19 07:12:13;;;;;;;9.07;2.58;;;10.20;99.90;;;;;;5115369;27;20035;-84
2022/10/19 07:14:39;;;;;;;9.27;2.28;;;10.20;99.90;;;;;;5119457;27;20047;-85
2022/10/19 07:17:06;;;;;;;10.73;2.10;;;10.20;99.90;;;;;;5101475;27;20035;-84
2022/10/19 07:19:32;;;;;;;10.05;1.95;;;10.20;99.90;;;;;;5137628;27;20037;-84
2022/10/19 07:21:58;;;;;;;5.85;1.60;;;10.30;99.90;;;;;;5111840;28;20054;-84
2022/10/19 07:24:24;;;;;;;7.35;2.10;;;10.30;99.90;;;;;;5112915;28;20118;-85
2022/10/19 07:26:50;;;;;;;8.00;1.73;;;10.30;99.90;;;;;;5112190;27;20070;-84
2022/10/19 07:29:16;;;;;;;12.88;2.10;;;10.40;99.90;;;;;;5093630;27;20062;-84
2022/10/19 07:31:41;;;;;;;6.80;1.88;;;10.40;99.90;;;;;;5101682;27;20129;-84
2022/10/19 07:34:11;;;;;;;9.13;2.03;;;10.40;99.90;;;;;;5155560;27;20037;-84
2022/10/19 07:36:36;;;;;;;7.50;1.83;;;10.50;99.90;;;;;;5138843;27;20117;-84
2022/10/19 07:39:05;;;;;;;14.52;2.53;;;10.50;99.90;;;;;;5124121;27;20085;-85
2022/10/19 07:41:31;;;;;;;7.25;1.80;;;10.50;99.90;;;;;;5135750;27;20038;-84
2022/10/19 07:43:57;;;;;;;9.88;1.88;;;10.50;99.90;;;;;;5135913;27;20538;-84
2022/10/19 07:46:25;;;;;;;8.30;1.77;;;10.60;99.90;;;;;;5122130;27;20126;-85
2022/10/19 07:48:52;;;;;;;8.95;2.05;;;10.50;99.90;;;;;;5139157;27;20039;-84
2022/10/19 07:51:18;;;;;;;5.45;2.03;;;10.70;99.90;;;;;;5117732;27;20035;-85
2022/10/19 07:53:45;;;;;;;8.00;1.90;;;10.70;99.90;;;;;;5138042;27;20049;-85
2022/10/19 07:56:14;;;;;;;8.07;1.60;;;10.90;99.90;;;;;;5149150;27;20038;-85
2022/10/19 07:58:41;;;;;;;11.18;2.00;;;10.80;99.90;;;;;;5138012;27;20042;-85
2022/10/19 08:01:14;;;;;;;8.20;1.70;;;10.80;99.90;;;;;;5119496;27;20620;-85
2022/10/19 08:03:40;;;;;;;9.95;1.77;;;10.80;99.90;;;;;;5151228;27;20095;-84
2022/10/19 08:06:08;;;;;;;10.07;2.13;;;10.90;99.90;;;;;;5139112;27;20054;-84
2022/10/19 08:08:35;;;;;;;8.98;1.80;;;10.90;99.90;;;;;;5154464;27;20045;-85
2022/10/19 08:11:11;;;;;;;9.93;2.20;;;11.00;99.90;;;;;;5117467;27;20035;-84
2022/10/19 08:13:36;;;;;;;9.82;2.00;;;11.20;99.90;;;;;;5129486;27;20091;-83
2022/10/19 08:16:03;;;;;;;7.70;1.90;;;11.00;99.90;;;;;;5117682;27;20038;-83
2022/10/19 08:18:29;;;;;;;9.80;1.98;;;11.10;99.90;;;;;;5136165;27;20433;-82
2022/10/19 08:20:55;;;;;;;9.30;2.20;;;11.10;99.90;;;;;;5138898;27;20043;-82
2022/10/19 08:23:22;;;;;;;6.75;1.60;;;11.20;99.90;;;;;;5117934;27;20039;-83
2022/10/19 08:25:48;;;;;;;7.95;1.55;;;11.20;99.90;;;;;;5135833;27;20046;-82
2022/10/19 08:28:14;;;;;;;9.15;1.88;;;11.20;99.90;;;;;;5120100;27;20037;-83
2022/10/19 08:30:40;;;;;;;8.15;1.65;;;11.20;99.90;;;;;;5155382;27;20113;-82
2022/10/19 08:33:07;;;;;;;8.07;1.98;;;11.20;99.90;;;;;;5135019;27;20034;-82
2022/10/19 08:35:34;;;;;;;13.05;2.00;;;11.30;99.90;;;;;;5135129;27;20086;-84
2022/10/19 08:37:59;;;;;;;5.72;1.40;;;11.30;99.90;;;;;;5115472;27;20170;-83
2022/10/19 08:40:28;;;;;;;7.13;1.58;;;11.30;99.90;;;;;;5136240;27;20121;-82
2022/10/19 08:43:00;;;;;;;13.63;1.70;;;11.30;99.90;;;;;;5133793;27;20117;-83
2022/10/19 08:45:29;;;;;;;13.52;1.92;;;11.30;99.90;;;;;;5128345;27;20037;-82
2022/10/19 08:48:14;;;;;;;11.68;1.90;;;11.40;99.90;;;;;;5152443;27;20031;-83
2022/10/19 08:50:44;;;;;;;9.40;1.55;;;11.40;99.90;;;;;;5134929;27;20163;-84
2022/10/19 08:53:36;;;;;;;9.10;2.30;;;11.40;99.90;;;;;;5147683;27;20114;-84
2022/10/19 08:56:28;;;;;;;10.60;1.90;;;11.40;99.90;;;;;;5129778;27;20394;-81
2022/10/19 08:59:21;;;;;;;12.23;2.67;;;11.50;99.90;;;;;;5136652;27;20536;-81
2022/10/19 09:02:01;;;;;;;7.07;1.75;;;11.50;99.90;;;;;;5136697;27;20418;-82
2022/10/19 09:04:33;;;;;;;11.57;2.35;;;11.50;99.90;;;;;;5133139;27;20104;-82
2022/10/19 09:07:17;;;;;;;12.27;1.48;;;11.50;99.90;;;;;;5126970;27;20526;-82
2022/10/19 09:09:50;;;;;;;10.13;2.00;;;11.60;99.90;;;;;;5128570;27;20039;-82
2022/10/19 09:12:22;;;;;;;10.80;1.85;;;11.60;99.90;;;;;;5135177;27;20041;-82
2022/10/19 09:15:06;;;;;;;10.02;1.65;;;11.60;99.90;;;;;;5154925;27;20486;-82
2022/10/19 09:17:32;;;;;;;9.63;1.58;;;11.70;99.90;;;;;;5131400;27;20031;-82
2022/10/19 09:20:13;;;;;;;8.57;1.75;;;11.90;99.90;;;;;;5117104;27;20061;-82
2022/10/19 09:22:41;;;;;;;8.35;1.63;;;12.00;99.90;;;;;;5145659;27;20057;-82
2022/10/19 09:25:19;;;;;;;11.30;2.17;;;12.10;99.90;;;;;;5136752;27;20066;-82
2022/10/19 09:27:48;;;;;;;10.13;2.13;;;12.40;99.90;;;;;;5151459;27;20087;-83
2022/10/19 09:30:23;;;;;;;10.02;2.17;;;12.70;99.90;;;;;;5137205;27;20057;-83
2022/10/19 09:32:59;;;;;;;10.40;1.97;;;12.90;99.90;;;;;;5116654;27;20062;-82
2022/10/19 09:35:33;;;;;;;11.73;1.88;;;12.80;99.90;;;;;;5126439;27;20030;-80
2022/10/19 09:37:59;;;;;;;10.43;1.85;;;12.70;99.90;;;;;;5135106;27;20110;-83
2022/10/19 09:40:28;;;;;;;15.40;2.42;;;12.50;99.90;;;;;;5127414;27;20031;-81
2022/10/19 09:43:01;;;;;;;13.77;2.20;;;12.50;99.90;;;;;;5128835;27;20104;-82
2022/10/19 09:45:51;;;;;;;11.75;1.63;;;12.60;99.90;;;;;;5149240;27;20049;-81
2022/10/19 09:48:47;;;;;;;12.32;2.08;;;12.60;99.90;;;;;;5147114;27;20134;-81
2022/10/19 09:51:16;;;;;;;13.20;2.00;;;12.60;99.90;;;;;;5150340;27;20144;-81
2022/10/19 09:53:50;;;;;;;7.95;1.52;;;12.60;99.90;;;;;;5130395;27;20026;-82
2022/10/19 09:56:18;;;;;;;12.35;2.00;;;12.60;99.90;;;;;;5127625;27;20039;-81
2022/10/19 09:58:50;;;;;;;13.30;2.05;;;12.60;99.90;;;;;;5144263;27;20450;-81
2022/10/19 10:01:38;;;;;;;12.40;1.80;;;12.60;99.90;;;;;;5128068;27;20087;-82
2022/10/19 10:04:05;;;;;;;8.05;1.75;;;12.60;99.90;;;;;;5132385;27;20042;-81
2022/10/19 10:06:32;;;;;;;7.63;2.10;;;12.60;99.90;;;;;;5152554;27;20069;-81
2022/10/19 10:08:58;;;;;;;13.55;1.83;;;12.50;99.90;;;;;;5119579;27;20557;-83
2022/10/19 10:11:31;;;;;;;12.10;1.88;;;12.50;99.90;;;;;;5130128;27;20066;-84
2022/10/19 10:13:59;;;;;;;8.73;1.80;;;12.50;99.90;;;;;;5142425;27;20117;-82
2022/10/19 10:16:29;;;;;;;11.15;1.80;;;12.60;99.90;;;;;;5144142;27;20118;-84
2022/10/19 10:18:59;;;;;;;11.70;2.15;;;12.50;99.90;;;;;;5156575;27;20481;-81
2022/10/19 10:25:24;;;;;;;7.93;1.77;;;12.30;99.90;;;;;;5146175;27;20043;-82
2022/10/19 10:27:56;;;;;;;13.88;1.85;;;13.00;99.90;;;;;;5139253;27;20543;-81
2022/10/19 10:30:22;;;;;;;13.10;1.85;;;13.10;99.90;;;;;;5150456;27;20034;-83
2022/10/19 10:32:51;;;;;;;10.50;1.90;;;13.10;99.90;;;;;;5146146;27;20050;-81
2022/10/19 10:35:34;;;;;;;12.23;2.03;;;13.10;99.90;;;;;;5144179;27;20067;-82
2022/10/19 10:38:12;;;;;;;9.52;1.75;;;13.00;99.90;;;;;;5129405;27;20047;-82
2022/10/19 10:40:38;;;;;;;15.45;1.92;;;12.80;99.90;;;;;;5129642;27;20057;-82
2022/10/19 10:43:08;;;;;;;13.23;2.47;;;12.80;99.90;;;;;;5132699;27;20070;-81
2022/10/19 10:45:41;;;;;;;11.65;1.88;;;12.70;99.90;;;;;;5145571;27;20046;-82
2022/10/19 10:48:19;;;;;;;11.65;2.10;;;12.70;99.90;;;;;;5128593;27;20043;-82
2022/10/19 10:50:45;;;;;;;11.77;1.95;;;12.70;99.90;;;;;;5131573;27;20494;-82
2022/10/19 10:53:43;;;;;;;11.20;2.10;;;12.70;99.90;;;;;;5127725;27;20522;-82
2022/10/19 10:56:32;;;;;;;11.15;1.90;;;12.80;99.90;;;;;;5100244;27;20554;-82
2022/10/19 10:59:51;;;;;;;7.72;1.65;;;12.80;99.90;;;;;;5134184;27;20074;-82
2022/10/19 11:02:23;;;;;;;13.10;2.45;;;12.80;99.90;;;;;;5072396;28;20089;-82
2022/10/19 11:05:17;;;;;;;7.18;1.27;;;12.80;99.90;;;;;;5128089;27;20491;-83
2022/10/19 11:07:46;;;;;;;9.75;1.80;;;12.90;99.90;;;;;;5128336;27;20058;-82
2022/10/19 11:10:35;;;;;;;15.32;2.10;;;12.90;99.90;;;;;;5136470;27;20099;-83
2022/10/19 11:13:03;;;;;;;5.82;1.55;;;12.80;99.90;;;;;;5133853;27;20053;-84
2022/10/19 11:15:43;;;;;;;5.85;1.40;;;12.80;99.90;;;;;;5135602;27;20442;-83
2022/10/19 11:18:20;;;;;;;8.02;1.70;;;12.90;99.90;;;;;;5136690;27;20087;-83
2022/10/19 11:21:01;;;;;;;13.85;2.05;;;12.90;99.90;;;;;;5130368;27;20085;-83
2022/10/19 11:23:40;;;;;;;5.75;1.48;;;12.80;99.90;;;;;;5153925;27;20043;-83
2022/10/19 11:26:15;;;;;;;11.00;1.83;;;12.80;99.90;;;;;;5136273;27;20068;-84
2022/10/19 11:29:00;;;;;;;11.57;1.85;;;12.90;99.90;;;;;;5126111;28;20075;-84
2022/10/19 11:31:31;;;;;;;13.32;2.10;;;12.90;99.90;;;;;;5136127;27;20027;-83
2022/10/19 11:34:20;;;;;;;10.00;1.85;;;13.00;99.90;;;;;;5137692;27;20206;-84
2022/10/19 11:37:10;;;;;;;11.48;1.95;;;13.00;99.90;;;;;;5130555;27;20094;-84
2022/10/19 11:39:55;;;;;;;11.60;1.77;;;13.00;99.90;;;;;;5135994;27;20539;-84
2022/10/19 11:42:55;;;;;;;11.88;2.30;;;13.10;99.90;;;;;;5137789;27;20035;-84
2022/10/19 11:45:58;;;;;;;13.23;1.70;;;13.10;99.90;;;;;;5136461;27;20046;-84
2022/10/19 11:48:32;;;;;;;12.65;2.30;;;13.30;99.90;;;;;;5136791;27;20081;-84
2022/10/19 11:51:21;;;;;;;12.93;2.17;;;13.30;99.90;;;;;;5136542;27;20095;-86
2022/10/19 11:53:56;;;;;;;11.85;2.00;;;13.40;99.90;;;;;;5132669;27;20174;-85
2022/10/19 11:56:38;;;;;;;10.18;1.67;;;13.40;99.90;;;;;;5131761;27;20053;-85
2022/10/19 11:59:09;;;;;;;9.23;2.30;;;13.40;99.90;;;;;;5139153;27;20046;-84
2022/10/19 12:02:01;;;;;;;8.43;1.98;;;13.40;99.90;;;;;;5133934;27;20506;-83
2022/10/19 12:04:48;;;;;;;16.98;2.63;;;13.40;99.90;;;;;;5131442;27;20035;-81
2022/10/19 12:07:59;;;;;;;11.70;2.58;;;13.40;99.90;;;;;;5136899;27;149206;-82
2022/10/19 12:10:32;;;;;;;10.48;1.73;;;13.30;99.90;;;;;;5130334;27;20132;-87
2022/10/19 12:13:02;;;;;;;7.03;1.60;;;13.30;99.90;;;;;;5151222;27;20039;-86
2022/10/19 12:15:38;;;;;;;11.18;2.20;;;13.30;99.90;;;;;;5132758;27;20031;-84
2022/10/19 12:18:22;;;;;;;7.82;2.17;;;13.30;99.90;;;;;;5136949;27;20047;-87
2022/10/19 12:20:51;;;;;;;8.35;1.98;;;13.20;99.90;;;;;;5131330;27;20035;-86
2022/10/19 12:23:34;;;;;;;7.68;1.90;;;13.20;99.90;;;;;;5135228;27;20482;-87
2022/10/19 12:26:04;;;;;;;14.30;2.33;;;13.30;99.90;;;;;;5139156;27;20382;-92
2022/10/19 12:28:34;;;;;;;9.25;2.20;;;13.30;99.90;;;;;;5152145;27;20051;-86
2022/10/19 12:31:01;;;;;;;10.45;1.98;;;13.30;99.90;;;;;;5136225;27;20095;-85
2022/10/19 12:33:52;;;;;;;12.02;2.55;;;13.30;99.90;;;;;;5133179;27;20032;-85
2022/10/19 12:36:32;;;;;;;16.67;2.75;;;13.50;99.90;;;;;;5153305;27;20479;-87
2022/10/19 12:39:14;;;;;;;20.58;3.45;;;13.60;99.90;;;;;;5135714;27;20167;-86
2022/10/19 12:41:50;;;;;;;10.13;3.17;;;13.60;99.90;;;;;;5137855;27;20042;-85
2022/10/19 12:44:44;;;;;;;11.20;2.63;;;13.60;99.90;;;;;;5136844;27;20039;-85
2022/10/19 12:47:21;;;;;;;13.20;2.53;;;13.50;99.90;;;;;;5151212;27;20043;-84
2022/10/19 12:49:57;;;;;;;10.15;2.55;;;13.40;99.90;;;;;;5131170;27;20095;-85
2022/10/19 12:52:35;;;;;;;;;;;13.40;99.90;;;;;;5153804;27;20031;-83
2022/10/19 12:55:33;;;;;;;10.35;3.20;;;13.40;99.90;;;;;;5135660;27;19923;-83
2022/10/19 12:58:12;;;;;;;34.33;3.83;;;13.40;99.90;;;;;;5134870;27;20054;-84
2022/10/19 13:00:38;;;;;;;13.77;2.28;;;13.40;99.90;;;;;;5134827;27;20043;-84
2022/10/19 13:03:20;;;;;;;11.45;2.67;;;13.40;99.90;;;;;;5114781;27;20042;-84
2022/10/19 13:05:59;;;;;;;11.07;2.20;;;13.40;99.90;;;;;;5133367;27;20035;-83
2022/10/19 13:08:29;;;;;;;11.52;1.98;;;13.50;99.90;;;;;;5133094;27;20054;-84
2022/10/19 13:11:13;;;;;;;7.75;2.15;;;13.50;99.90;;;;;;5134895;27;20498;-87
2022/10/19 13:13:57;;;;;;;9.68;2.15;;;13.50;99.90;;;;;;5135482;27;20069;-88
2022/10/19 13:16:35;;;;;;;10.07;2.13;;;13.50;99.90;;;;;;5135771;27;20090;-83